Wrightsville, Ohio
Current Conditions -  °F | °C
As of 1:35 AM on Monday 24 Nov 2014 (Local Time) from KFGX Reporting Station
Overcast Overcast  
Wind Chill: 58°   Ceiling: 1500
Heat Index: 58°   Visibility: 10mi
Dew Point: 56°   Wind: 18mph
Humidity: 92%   Direction: 220°SW
Pressure: 29.4"   Gusts: 30mph
Location:  38.7042°N, 83.6081°W
Report Text: KFGX 240635Z AUTO 22016G26KT 10SM OVC015 15/13 A2940 RMK AO2 T01450132
Loading
Personal Weather Stations






























Interactive Weather Map New forecast layout! Learn more

10-Day Weather Forecast

Advertisements
Track Severe Weather on mobile